| time (UTC) | temp C | wind direction | speed KPH | gust KPH | rain 1hr cm | rain 24hr cm | rain mn cm | humidity % | barometer mb |
| 20260507231549 | -17 | 203 | 4.8 | 8.0 | 0.00 | 0.00 | 0.00 | 1005.5 | |
| 20260507230022 | -17 | 204 | 1.6 | 3.2 | 0.00 | 0.00 | 0.00 | 1005.5 | |
| 20260507224521 | -17 | 203 | 0.0 | 3.2 | 0.00 | 0.00 | 0.00 | 1005.4 | |
| 20260507223101 | -17 | 204 | 0.0 | 1.6 | 0.00 | 0.00 | 0.00 | 1005.4 | |
| 20260507221552 | -17 | 203 | 1.6 | 3.2 | 0.00 | 0.00 | 0.00 | 1005.4 | |
| 20260507220047 | -17 | 204 | 1.6 | 3.2 | 0.00 | 0.00 | 0.00 | 1005.3 | |
| 20260507214522 | -17 | 203 | 1.6 | 8.0 | 0.00 | 0.00 | 0.00 | 1005.2 | |
| 20260507213025 | -17 | 204 | 3.2 | 8.0 | 0.00 | 0.00 | 0.00 | 1005.3 | |
| 20260507211514 | -17 | 204 | 1.6 | 4.8 | 0.00 | 0.00 | 0.00 | 1005.1 | |
| 20260507210053 | -17 | 204 | 3.2 | 8.0 | 0.00 | 0.00 | 0.00 | 1005.1 | |
| 20260507204556 | -17 | 204 | 1.6 | 6.4 | 0.00 | 0.00 | 0.00 | 1005.0 | |
| 20260507203057 | -17 | 203 | 1.6 | 6.4 | 0.00 | 0.00 | 0.00 | 1005.0 | |
| 20260507201553 | -17 | 202 | 3.2 | 11.3 | 0.00 | 0.00 | 0.00 | 1004.8 | |
| 20260507200028 | -17 | 202 | 6.4 | 9.7 | 0.00 | 0.00 | 0.00 | 1004.7 | |
| 20260507194544 | -17 | 202 | 6.4 | 11.3 | 0.00 | 0.00 | 0.00 | 1004.6 | |
| 20260507193033 | -17 | 202 | 9.7 | 16.1 | 0.00 | 0.00 | 0.00 | 1004.5 | |
| 20260507191523 | -17 | 202 | 8.0 | 14.5 | 0.00 | 0.00 | 0.00 | 1004.5 | |
| 20260507190008 | -17 | 202 | 6.4 | 14.5 | 0.00 | 0.00 | 0.00 | 1004.5 | |
| 20260507184534 | -17 | 201 | 9.7 | 16.1 | 0.00 | 0.00 | 0.00 | 1004.4 | |
| 20260507183037 | -17 | 201 | 11.3 | 24.1 | 0.00 | 0.00 | 0.00 | 1004.2 | |
| 20260507181529 | -17 | 198 | 14.5 | 22.5 | 0.00 | 0.00 | 0.00 | 1004.2 | |
| 20260507180035 | -17 | 198 | 12.9 | 24.1 | 0.00 | 0.00 | 0.00 | 1004.2 | |
| 20260507174520 | -17 | 198 | 6.4 | 16.1 | 0.00 | 0.00 | 0.00 | 1004.1 | |
| 20260507173049 | -17 | 198 | 12.9 | 25.7 | 0.00 | 0.00 | 0.00 | 1004.2 | |
| 20260507171517 | -17 | 200 | 9.7 | 22.5 | 0.00 | 0.00 | 0.00 | 1004.2 | |
| 20260507170010 | -17 | 200 | 17.7 | 25.7 | 0.00 | 0.00 | 0.00 | 1004.2 | |
| 20260507164501 | -17 | 198 | 12.9 | 25.7 | 0.00 | 0.00 | 0.00 | 1004.2 | |
| 20260507163016 | -17 | 197 | 12.9 | 24.1 | 0.00 | 0.00 | 0.00 | 1004.2 | |
| 20260507161550 | -17 | 197 | 12.9 | 24.1 | 0.00 | 0.00 | 0.00 | 1004.2 | |
| 20260507160017 | -17 | 197 | 14.5 | 22.5 | 0.00 | 0.00 | 0.00 | 1004.1 | |
| 20260507154510 | -17 | 198 | 12.9 | 20.9 | 0.00 | 0.00 | 0.00 | 1004.2 | |
| 20260507153013 | -17 | 197 | 16.1 | 24.1 | 0.00 | 0.00 | 0.00 | 1004.1 | |
| 20260507151508 | -17 | 197 | 14.5 | 22.5 | 0.00 | 0.00 | 0.00 | 1004.2 | |
| 20260507150002 | -17 | 197 | 14.5 | 20.9 | 0.00 | 0.00 | 0.00 | 1004.1 | |
| 20260507144524 | -17 | 197 | 12.9 | 17.7 | 0.00 | 0.00 | 0.00 | 1004.2 | |
| 20260507143020 | -17 | 197 | 8.0 | 19.3 | 0.00 | 0.00 | 0.00 | 1004.4 | |
| 20260507141519 | -17 | 200 | 6.4 | 17.7 | 0.00 | 0.00 | 0.00 | 1004.5 | |
| 20260507140051 | -17 | 200 | 8.0 | 17.7 | 0.00 | 0.00 | 0.00 | 1004.5 | |
| 20260507134554 | -17 | 198 | 8.0 | 20.9 | 0.00 | 0.00 | 0.00 | 1004.5 | |
| 20260507133042 | -17 | 197 | 11.3 | 20.9 | 0.00 | 0.00 | 0.00 | 1004.5 | |
| 20260507131540 | -17 | 198 | 6.4 | 20.9 | 0.00 | 0.00 | 0.00 | 1004.6 | |
| 20260507130033 | -17 | 198 | 9.7 | 14.5 | 0.00 | 0.00 | 0.00 | 1004.6 | |
| 20260507124527 | -17 | 198 | 8.0 | 17.7 | 0.00 | 0.00 | 0.00 | 1004.6 | |
| 20260507123040 | -17 | 198 | 11.3 | 20.9 | 0.00 | 0.00 | 0.00 | 1004.6 | |
| 20260507121535 | -17 | 198 | 14.5 | 20.9 | 0.00 | 0.00 | 0.00 | 1004.6 | |
| 20260507120031 | -17 | 198 | 14.5 | 24.1 | 0.00 | 0.00 | 0.00 | 1004.8 | |
| 20260507114531 | -17 | 198 | 8.0 | 19.3 | 0.00 | 0.00 | 0.00 | 1004.7 | |
| 20260507113023 | -17 | 197 | 14.5 | 24.1 | 0.00 | 0.00 | 0.00 | 1004.8 | |
| 20260507111521 | -17 | 198 | 14.5 | 22.5 | 0.00 | 0.00 | 0.00 | 1004.7 | |
| 20260507110002 | -17 | 200 | 11.3 | 19.3 | 0.00 | 0.00 | 0.00 | 1004.7 | |
| 20260507104506 | -17 | 197 | 1.6 | 11.3 | 0.00 | 0.00 | 0.00 | 1004.8 | |
| 20260507103000 | -17 | 200 | 9.7 | 14.5 | 0.00 | 0.00 | 0.00 | 1005.0 | |
| 20260507101601 | -17 | 198 | 8.0 | 16.1 | 0.00 | 0.00 | 0.00 | 1004.9 | |
| 20260507100004 | -17 | 197 | 8.0 | 12.9 | 0.00 | 0.00 | 0.00 | 1005.0 | |
| 20260507094541 | -17 | 198 | 6.4 | 11.3 | 0.00 | 0.00 | 0.00 | 1005.0 | |
| 20260507093040 | -17 | 198 | 6.4 | 11.3 | 0.00 | 0.00 | 0.00 | 1004.9 | |
| 20260507091540 | -17 | 197 | 8.0 | 12.9 | 0.00 | 0.00 | 0.00 | 1004.8 | |
| 20260507090006 | -17 | 197 | 4.8 | 11.3 | 0.00 | 0.00 | 0.00 | 1004.9 | |
| 20260507084601 | -17 | 198 | 4.8 | 9.7 | 0.00 | 0.00 | 0.00 | 1004.8 | |
| 20260507083004 | -17 | 197 | 4.8 | 8.0 | 0.00 | 0.00 | 0.00 | 1004.8 | |
| 20260507081557 | -17 | 198 | 1.6 | 6.4 | 0.00 | 0.00 | 0.00 | 1004.8 | |
| 20260507080053 | -17 | 197 | 3.2 | 6.4 | 0.00 | 0.00 | 0.00 | 1004.8 | |
| 20260507074548 | -17 | 199 | 4.8 | 9.7 | 0.00 | 0.00 | 0.00 | 1004.7 | |
| 20260507073043 | -17 | 200 | 3.2 | 8.0 | 0.00 | 0.00 | 0.00 | 1004.7 | |
| 20260507071538 | -17 | 198 | 3.2 | 9.7 | 0.00 | 0.00 | 0.00 | 1004.6 | |
| 20260507070026 | -17 | 197 | 4.8 | 12.9 | 0.00 | 0.00 | 0.00 | 1004.6 | |
| 20260507064503 | -17 | 198 | 9.7 | 14.5 | 0.00 | 0.00 | 0.00 | 1004.5 | |
| 20260507063059 | -17 | 198 | 4.8 | 11.3 | 0.00 | 0.00 | 0.00 | 1004.6 | |
| 20260507061555 | -17 | 197 | 4.8 | 12.9 | 0.00 | 0.00 | 0.00 | 1004.6 | |
| 20260507060013 | -17 | 197 | 3.2 | 8.0 | 0.00 | 0.00 | 0.00 | 1004.6 | |
| 20260507054510 | -17 | 195 | 3.2 | 6.4 | 0.00 | 0.00 | 0.00 | 1004.6 | |
| 20260507053006 | -17 | 197 | 3.2 | 6.4 | 0.00 | 0.00 | 0.00 | 1004.5 | |
| 20260507051557 | -17 | 197 | 3.2 | 6.4 | 0.00 | 0.00 | 0.00 | 1004.5 | |
| 20260507050052 | -17 | 198 | 3.2 | 6.4 | 0.00 | 0.00 | 0.00 | 1004.5 | |
| 20260507044548 | -17 | 198 | 4.8 | 9.7 | 0.00 | 0.00 | 0.00 | 1004.4 | |
| 20260507043042 | -17 | 199 | 1.6 | 8.0 | 0.00 | 0.00 | 0.00 | 1004.4 | |
| 20260507041502 | -17 | 198 | 0.0 | 3.2 | 0.00 | 0.00 | 0.00 | 1004.4 | |
| 20260507040101 | -17 | 197 | 1.6 | 4.8 | 0.00 | 0.00 | 0.00 | 1004.3 | |
| 20260507034601 | -17 | 197 | 3.2 | 8.0 | 0.00 | 0.00 | 0.00 | 1004.3 | |
| 20260507031510 | -17 | 198 | 3.2 | 9.7 | 0.00 | 0.00 | 0.00 | 1004.4 | |
| 20260507030003 | -17 | 198 | 4.8 | 8.0 | 0.00 | 0.00 | 0.00 | 1004.4 | |
| 20260507024601 | -17 | 197 | 3.2 | 4.8 | 0.00 | 0.00 | 0.00 | 1004.4 | |
| 20260507023054 | -17 | 198 | 3.2 | 4.8 | 0.00 | 0.00 | 0.00 | 1004.4 | |
| 20260507021551 | -17 | 198 | 1.6 | 3.2 | 0.00 | 0.00 | 0.00 | 1004.5 | |
| 20260507020053 | -17 | 198 | 0.0 | 3.2 | 0.00 | 0.00 | 0.00 | 1004.5 | |
| 20260507014546 | -17 | 198 | 0.0 | 0.0 | 0.00 | 0.00 | 0.00 | 1004.5 | |
| 20260507013041 | -17 | 198 | 0.0 | 0.0 | 0.00 | 0.00 | 0.00 | 1004.5 | |
| 20260507011534 | -17 | 198 | 0.0 | 0.0 | 0.00 | 0.00 | 0.00 | 1004.6 | |
| 20260507010018 | -17 | 197 | 0.0 | 1.6 | 0.00 | 0.00 | 0.00 | 1004.6 | |
| 20260507004509 | -17 | 198 | 0.0 | 1.6 | 0.00 | 0.00 | 0.00 | 1004.6 | |
| 20260507003011 | -17 | 198 | 0.0 | 1.6 | 0.00 | 0.00 | 0.00 | 1004.7 | |
| 20260507001501 | -17 | 197 | 0.0 | 1.6 | 0.00 | 0.00 | 0.00 | 1004.8 | |
| 20260507000059 | -17 | 197 | 1.6 | 4.8 | 0.00 | 0.00 | 0.00 | 1004.9 | |
| 20260506234539 | -17 | 197 | 1.6 | 3.2 | 0.00 | 0.00 | 0.00 | 1004.9 | |
| 20260506233038 | -17 | 198 | 1.6 | 3.2 | 0.00 | 0.00 | 0.00 | 1004.9 |